createdAt,value
2018-12-31T00:00:08.709Z,2.30
2018-12-31T00:02:40.594Z,2.30
2018-12-31T00:05:09.620Z,2.33
2018-12-31T00:07:37.775Z,2.60
2018-12-31T00:10:05.729Z,2.50
2018-12-31T00:12:33.816Z,3.60
2018-12-31T00:15:02.115Z,2.20
2018-12-31T00:17:30.061Z,2.65
2018-12-31T00:19:58.134Z,2.10
2018-12-31T00:22:26.285Z,2.37
2018-12-31T00:24:54.275Z,2.20
2018-12-31T00:27:23.440Z,2.50
2018-12-31T00:29:51.443Z,5.55
2018-12-31T00:32:19.414Z,2.37
2018-12-31T00:34:49.263Z,2.50
2018-12-31T00:37:17.094Z,5.03
2018-12-31T00:39:45.061Z,2.30
2018-12-31T00:42:13.340Z,2.25
2018-12-31T00:44:41.514Z,2.20
2018-12-31T00:47:09.588Z,2.08
2018-12-31T00:49:37.640Z,2.67
2018-12-31T00:52:05.626Z,2.50
2018-12-31T00:54:33.959Z,2.20
2018-12-31T00:57:01.973Z,2.60
2018-12-31T00:59:30.147Z,2.00
2018-12-31T01:01:58.200Z,2.58
2018-12-31T01:04:26.703Z,2.33
2018-12-31T01:06:54.653Z,5.03
2018-12-31T01:09:22.619Z,1.90
2018-12-31T01:11:50.682Z,3.87
2018-12-31T01:14:18.766Z,3.55
2018-12-31T01:16:46.751Z,2.20
2018-12-31T01:19:14.720Z,1.90
2018-12-31T01:21:42.692Z,2.00
2018-12-31T01:24:10.643Z,2.50
2018-12-31T01:26:38.837Z,1.80
2018-12-31T01:29:06.905Z,2.60
2018-12-31T01:31:36.105Z,2.52
2018-12-31T01:34:04.180Z,2.55
2018-12-31T01:36:32.353Z,2.65
2018-12-31T01:39:00.293Z,2.00
2018-12-31T01:41:28.596Z,2.15
2018-12-31T01:43:56.770Z,2.47
2018-12-31T01:46:24.844Z,2.25
2018-12-31T01:48:52.914Z,2.80
2018-12-31T01:51:20.882Z,2.60
2018-12-31T01:53:48.957Z,2.22
2018-12-31T01:56:17.996Z,2.40
2018-12-31T01:58:46.122Z,2.50
2018-12-31T02:01:15.820Z,4.10
2018-12-31T02:03:44.008Z,3.45
2018-12-31T02:06:11.964Z,3.12
2018-12-31T02:08:40.149Z,3.58
2018-12-31T02:11:08.124Z,4.65
2018-12-31T02:13:36.062Z,11.00
2018-12-31T02:16:04.134Z,4.10
2018-12-31T02:18:32.129Z,3.45
2018-12-31T02:21:00.284Z,4.62
2018-12-31T02:23:28.272Z,3.22
2018-12-31T02:25:57.209Z,3.33
2018-12-31T02:28:25.339Z,2.90
2018-12-31T02:30:55.010Z,3.62
2018-12-31T02:33:22.995Z,2.95
2018-12-31T02:35:51.295Z,4.08
2018-12-31T02:38:19.555Z,6.25
2018-12-31T02:40:47.542Z,6.25
2018-12-31T02:43:17.218Z,4.55
2018-12-31T02:45:45.537Z,5.67
2018-12-31T02:48:13.618Z,11.18
2018-12-31T02:50:41.647Z,7.62
2018-12-31T02:53:09.641Z,7.95
2018-12-31T02:55:37.611Z,6.20
2018-12-31T02:58:05.656Z,4.95
2018-12-31T03:00:33.960Z,8.65
2018-12-31T03:03:02.028Z,7.17
2018-12-31T03:05:30.000Z,6.97
2018-12-31T03:07:57.969Z,6.45
2018-12-31T03:10:26.779Z,4.28
2018-12-31T03:12:56.555Z,4.10
2018-12-31T03:15:24.541Z,2.30
2018-12-31T03:17:52.587Z,2.95
2018-12-31T03:20:20.585Z,2.10
2018-12-31T03:22:48.551Z,3.55
2018-12-31T03:25:16.624Z,2.15
2018-12-31T03:27:44.569Z,4.08
2018-12-31T03:30:14.523Z,4.42
2018-12-31T03:32:42.168Z,7.72
2018-12-31T03:35:10.345Z,4.10
2018-12-31T03:37:38.415Z,5.55
2018-12-31T03:40:06.387Z,3.22
2018-12-31T03:42:34.328Z,2.65
2018-12-31T03:45:02.325Z,2.40
2018-12-31T03:47:30.476Z,2.02
2018-12-31T03:49:59.441Z,2.17
2018-12-31T03:52:28.532Z,2.62
2018-12-31T03:54:56.559Z,2.35
2018-12-31T03:57:26.666Z,2.20
2018-12-31T03:59:54.442Z,2.30
2018-12-31T04:02:23.547Z,1.95
2018-12-31T04:04:51.506Z,1.95
2018-12-31T04:07:19.781Z,1.82
2018-12-31T04:09:47.835Z,2.40
2018-12-31T04:12:16.031Z,1.90
2018-12-31T04:14:44.000Z,2.30
2018-12-31T04:17:12.070Z,2.15
2018-12-31T04:19:40.246Z,2.20
2018-12-31T04:22:08.213Z,2.10
2018-12-31T04:24:36.299Z,2.15
2018-12-31T04:27:04.254Z,3.40
2018-12-31T04:29:32.328Z,1.80
2018-12-31T04:32:02.189Z,2.90
2018-12-31T04:34:31.931Z,1.85
2018-12-31T04:37:01.393Z,1.72
2018-12-31T04:39:29.428Z,5.83
2018-12-31T04:41:57.394Z,2.00
2018-12-31T04:44:25.571Z,1.90
2018-12-31T04:46:53.643Z,1.92
2018-12-31T04:49:21.590Z,2.08
2018-12-31T04:51:49.661Z,2.02
2018-12-31T04:54:17.575Z,1.98
2018-12-31T04:56:45.723Z,2.52
2018-12-31T04:59:14.103Z,13.65
2018-12-31T05:01:42.071Z,13.03
2018-12-31T05:04:10.022Z,11.25
2018-12-31T05:06:39.463Z,9.73
2018-12-31T05:09:07.517Z,13.18
2018-12-31T05:11:35.592Z,17.15
2018-12-31T05:14:03.635Z,10.68
2018-12-31T05:16:32.573Z,17.50
2018-12-31T05:19:00.627Z,12.43
2018-12-31T05:21:28.595Z,11.00
2018-12-31T05:23:56.640Z,11.85
2018-12-31T05:26:24.737Z,9.50
2018-12-31T05:28:52.705Z,9.98
2018-12-31T05:31:20.756Z,6.47
2018-12-31T05:33:48.849Z,4.17
2018-12-31T05:36:16.820Z,7.78
2018-12-31T05:38:44.769Z,4.55
2018-12-31T05:41:14.383Z,8.05
2018-12-31T05:43:44.032Z,3.40
2018-12-31T05:46:12.279Z,4.33
2018-12-31T05:48:40.230Z,4.45
2018-12-31T05:51:08.218Z,3.50
2018-12-31T05:53:36.191Z,3.10
2018-12-31T05:56:04.465Z,3.77
2018-12-31T05:58:32.434Z,2.60
2018-12-31T06:01:00.404Z,2.30
2018-12-31T06:03:28.374Z,4.75
2018-12-31T06:05:56.344Z,1.92
2018-12-31T06:08:24.311Z,1.90
2018-12-31T06:10:52.283Z,2.08
2018-12-31T06:13:20.251Z,1.72
2018-12-31T06:15:48.323Z,3.40
2018-12-31T06:18:16.282Z,1.80
2018-12-31T06:20:44.772Z,2.62
2018-12-31T06:23:12.659Z,2.20
2018-12-31T06:25:40.794Z,1.90
2018-12-31T06:28:08.863Z,2.30
2018-12-31T06:30:36.831Z,1.80
2018-12-31T06:33:04.826Z,2.50
2018-12-31T06:35:32.795Z,2.25
2018-12-31T06:38:00.767Z,2.17
2018-12-31T06:40:28.733Z,2.47
2018-12-31T06:42:56.704Z,3.47
2018-12-31T06:45:24.647Z,1.72
2018-12-31T06:50:32.167Z,2.35
2018-12-31T06:53:00.130Z,2.95
2018-12-31T06:55:28.211Z,3.62
2018-12-31T06:57:56.195Z,6.80
2018-12-31T07:00:24.243Z,6.78
2018-12-31T07:02:52.747Z,13.72
2018-12-31T07:05:20.692Z,9.55
2018-12-31T07:07:48.664Z,6.83
2018-12-31T07:10:16.842Z,7.70
2018-12-31T07:12:45.140Z,7.80
2018-12-31T07:15:14.127Z,8.18
2018-12-31T07:17:42.483Z,5.70
2018-12-31T07:20:10.479Z,6.45
2018-12-31T07:22:38.435Z,8.73
2018-12-31T07:25:06.416Z,5.83
2018-12-31T07:27:36.253Z,4.50
2018-12-31T07:30:03.998Z,5.80
2018-12-31T07:32:32.040Z,5.60
2018-12-31T07:35:00.229Z,5.50
2018-12-31T07:37:28.413Z,4.90
2018-12-31T07:39:56.384Z,5.28
2018-12-31T07:42:24.455Z,6.20
2018-12-31T07:44:52.398Z,4.15
2018-12-31T07:47:20.702Z,5.90
2018-12-31T07:49:48.748Z,5.90
2018-12-31T07:52:16.746Z,3.47
2018-12-31T07:54:44.710Z,9.58
2018-12-31T07:57:12.783Z,9.80
2018-12-31T07:59:42.364Z,7.22
2018-12-31T08:02:10.432Z,5.65
2018-12-31T08:04:38.437Z,8.10
2018-12-31T08:07:06.382Z,10.93
2018-12-31T08:09:34.556Z,45.37
2018-12-31T08:12:02.517Z,60.10
2018-12-31T08:14:30.495Z,45.07
2018-12-31T08:16:58.563Z,87.77
2018-12-31T08:19:27.664Z,50.60
2018-12-31T08:21:55.653Z,43.30
2018-12-31T08:24:23.599Z,47.27
2018-12-31T08:26:51.671Z,26.23
2018-12-31T08:29:19.745Z,27.43
2018-12-31T08:31:47.720Z,18.90
2018-12-31T08:34:15.756Z,21.40
2018-12-31T08:36:43.780Z,40.20
2018-12-31T08:39:12.053Z,119.80
2018-12-31T08:41:40.109Z,104.13
2018-12-31T08:44:08.095Z,131.73
2018-12-31T08:46:36.064Z,134.03
2018-12-31T08:49:04.145Z,98.53
2018-12-31T08:51:35.326Z,109.90
2018-12-31T08:54:04.318Z,203.17
2018-12-31T08:56:32.348Z,195.53
2018-12-31T08:59:00.520Z,268.67
2018-12-31T09:01:28.673Z,298.87
2018-12-31T09:03:56.638Z,56.13
2018-12-31T09:06:24.612Z,130.97
2018-12-31T09:08:52.684Z,102.43
2018-12-31T09:11:20.752Z,70.70
2018-12-31T09:13:48.719Z,80.00
2018-12-31T09:16:16.893Z,102.83
2018-12-31T09:18:44.891Z,117.67
2018-12-31T09:21:13.044Z,103.43
2018-12-31T09:23:41.009Z,12.83
2018-12-31T09:26:09.825Z,103.23
2018-12-31T09:28:39.723Z,9.23
2018-12-31T09:31:07.847Z,27.03
2018-12-31T09:33:35.987Z,6.90
2018-12-31T09:36:03.939Z,4.50
2018-12-31T09:38:31.994Z,3.13
2018-12-31T09:40:59.994Z,3.50
2018-12-31T09:43:28.953Z,4.57
2018-12-31T09:45:56.957Z,3.03
2018-12-31T09:48:27.028Z,3.60
2018-12-31T09:50:54.718Z,7.67
2018-12-31T09:53:22.712Z,3.33
2018-12-31T09:55:50.651Z,7.30
2018-12-31T09:58:18.606Z,6.00
2018-12-31T10:00:46.482Z,5.63
2018-12-31T10:03:14.555Z,5.60
2018-12-31T10:05:42.436Z,4.10
2018-12-31T10:08:10.398Z,6.80
2018-12-31T10:10:38.456Z,21.53
2018-12-31T10:13:06.429Z,7.93
2018-12-31T10:15:34.433Z,6.27
2018-12-31T10:18:02.516Z,7.60
2018-12-31T10:20:32.200Z,5.60
2018-12-31T10:23:00.155Z,6.20
2018-12-31T10:25:28.647Z,7.63
2018-12-31T10:27:57.625Z,5.53
2018-12-31T10:30:25.629Z,7.17
2018-12-31T10:32:54.398Z,10.23
2018-12-31T10:35:22.387Z,5.07
2018-12-31T10:37:50.354Z,6.47
2018-12-31T10:40:18.300Z,8.63
2018-12-31T10:42:46.267Z,7.23
2018-12-31T10:45:14.466Z,4.23
2018-12-31T10:47:42.441Z,8.47
2018-12-31T10:50:10.483Z,7.20
2018-12-31T10:52:38.482Z,4.40
2018-12-31T10:55:06.733Z,5.97
2018-12-31T10:57:34.724Z,3.97
2018-12-31T11:00:02.696Z,4.30
2018-12-31T11:02:30.638Z,5.30
2018-12-31T11:04:58.839Z,3.47
2018-12-31T11:07:26.910Z,6.13
2018-12-31T11:09:54.981Z,4.93
2018-12-31T11:12:23.031Z,6.77
2018-12-31T11:14:50.994Z,9.60
2018-12-31T11:17:18.993Z,11.13
2018-12-31T11:19:47.242Z,6.27
2018-12-31T11:22:15.314Z,6.80
2018-12-31T11:24:43.386Z,10.70
2018-12-31T11:27:11.383Z,7.30
2018-12-31T11:29:39.351Z,10.93
2018-12-31T11:32:07.324Z,5.47
2018-12-31T11:34:35.288Z,7.87
2018-12-31T11:37:04.969Z,12.10
2018-12-31T11:39:32.970Z,7.50
2018-12-31T11:42:02.647Z,5.90
2018-12-31T11:44:30.651Z,7.03
2018-12-31T11:46:58.826Z,7.83
2018-12-31T11:49:26.976Z,4.07
2018-12-31T11:51:56.965Z,4.53
2018-12-31T11:54:24.963Z,13.23
2018-12-31T11:56:52.953Z,4.23
2018-12-31T11:59:21.025Z,8.30
2018-12-31T12:01:49.304Z,6.27
2018-12-31T12:04:17.374Z,9.33
2018-12-31T12:06:45.344Z,4.80
2018-12-31T12:09:13.312Z,4.80
2018-12-31T12:11:41.260Z,6.80
2018-12-31T12:14:09.356Z,8.80
2018-12-31T12:16:37.327Z,4.47
2018-12-31T12:19:05.808Z,10.93
2018-12-31T12:21:33.756Z,5.90
2018-12-31T12:24:01.731Z,8.57
2018-12-31T12:26:29.717Z,10.30
2018-12-31T12:28:57.686Z,5.50
2018-12-31T12:31:25.652Z,6.50
2018-12-31T12:33:53.679Z,16.10
2018-12-31T12:36:22.000Z,7.57
2018-12-31T12:38:53.044Z,6.50
2018-12-31T12:41:21.296Z,5.67
2018-12-31T12:43:49.396Z,3.43
2018-12-31T12:46:17.668Z,4.33
2018-12-31T12:48:47.291Z,5.20
2018-12-31T12:51:15.327Z,6.00
2018-12-31T12:53:45.173Z,5.53
2018-12-31T12:56:13.863Z,4.27
2018-12-31T12:58:41.996Z,4.57
2018-12-31T13:01:09.991Z,4.13
2018-12-31T13:03:37.935Z,5.87
2018-12-31T13:06:05.931Z,5.10
2018-12-31T13:08:33.901Z,3.50
2018-12-31T13:11:02.281Z,4.23
2018-12-31T13:13:30.245Z,3.80
2018-12-31T13:15:59.107Z,4.87
2018-12-31T13:18:27.107Z,5.57
2018-12-31T13:20:55.178Z,7.70
2018-12-31T13:23:25.590Z,8.30
2018-12-31T13:25:53.472Z,6.37
2018-12-31T13:28:21.751Z,6.03
2018-12-31T13:30:49.699Z,5.00
2018-12-31T13:33:17.659Z,18.53
2018-12-31T13:35:47.575Z,4.67
2018-12-31T13:38:15.552Z,8.63
2018-12-31T13:40:44.735Z,5.73
2018-12-31T13:43:14.146Z,6.20
2018-12-31T13:45:42.118Z,12.10
2018-12-31T13:48:10.196Z,3.47
2018-12-31T13:50:38.162Z,5.33
2018-12-31T13:53:06.155Z,9.03
2018-12-31T13:55:34.101Z,7.20
2018-12-31T13:58:03.319Z,7.13
2018-12-31T14:00:31.268Z,4.30
2018-12-31T14:02:59.258Z,6.00
2018-12-31T14:05:27.511Z,7.30
2018-12-31T14:07:55.515Z,8.50
2018-12-31T14:10:23.661Z,6.37
2018-12-31T14:12:52.633Z,6.67
2018-12-31T14:15:23.584Z,6.20
2018-12-31T14:17:51.684Z,7.73
2018-12-31T14:20:19.655Z,10.90
2018-12-31T14:22:47.606Z,7.10
2018-12-31T14:25:15.595Z,6.30
2018-12-31T14:27:43.974Z,4.57
2018-12-31T14:30:12.043Z,5.23
2018-12-31T14:32:41.947Z,13.38
2018-12-31T14:35:09.611Z,6.90
2018-12-31T14:37:37.905Z,12.10
2018-12-31T14:40:06.379Z,6.13
2018-12-31T14:42:35.440Z,15.50
2018-12-31T14:45:03.445Z,4.40
2018-12-31T14:47:31.393Z,4.30
2018-12-31T14:50:01.186Z,4.60
2018-12-31T14:52:30.088Z,4.90
2018-12-31T14:54:58.292Z,4.08
2018-12-31T14:57:26.235Z,4.10
2018-12-31T14:59:54.437Z,5.30
2018-12-31T15:02:22.484Z,4.43
2018-12-31T15:04:50.479Z,4.53
2018-12-31T15:07:18.626Z,5.50
2018-12-31T15:09:46.700Z,3.75
2018-12-31T15:12:14.691Z,4.42
2018-12-31T15:14:42.866Z,7.83
2018-12-31T15:17:11.039Z,3.90
2018-12-31T15:19:39.705Z,5.65
2018-12-31T15:22:07.799Z,4.45
2018-12-31T15:24:37.470Z,4.72
2018-12-31T15:27:05.460Z,3.52
2018-12-31T15:29:35.300Z,4.87
2018-12-31T15:32:05.193Z,7.10
2018-12-31T15:34:32.870Z,6.15
2018-12-31T15:37:01.223Z,3.37
2018-12-31T15:39:29.395Z,4.97
2018-12-31T15:41:57.495Z,3.42
2018-12-31T15:44:26.081Z,5.87
2018-12-31T15:46:55.508Z,7.20
2018-12-31T15:49:23.535Z,6.42
2018-12-31T15:51:51.461Z,3.40
2018-12-31T15:54:19.599Z,4.67
2018-12-31T15:56:47.546Z,4.85
2018-12-31T15:59:15.510Z,5.95
2018-12-31T16:01:43.480Z,4.78
2018-12-31T16:04:11.447Z,7.50
2018-12-31T16:06:39.519Z,9.13
2018-12-31T16:09:07.718Z,3.90
2018-12-31T16:11:36.103Z,6.40
2018-12-31T16:14:04.273Z,6.30
2018-12-31T16:16:32.220Z,5.58
2018-12-31T16:19:00.415Z,7.85
2018-12-31T16:21:28.387Z,10.43
2018-12-31T16:23:56.354Z,5.60
2018-12-31T16:26:26.369Z,6.53
2018-12-31T16:28:54.135Z,5.20
2018-12-31T16:31:22.078Z,6.45
2018-12-31T16:33:50.049Z,10.03
2018-12-31T16:36:18.148Z,7.55
2018-12-31T16:38:47.943Z,8.80
2018-12-31T16:41:16.141Z,9.85
2018-12-31T16:43:44.445Z,5.58
2018-12-31T16:46:13.280Z,5.00
2018-12-31T16:48:41.348Z,7.10
2018-12-31T16:51:09.727Z,6.55
2018-12-31T16:53:37.928Z,8.88
2018-12-31T16:56:05.896Z,6.28
2018-12-31T16:58:35.214Z,4.90
2018-12-31T17:01:03.248Z,7.40
2018-12-31T17:03:31.520Z,6.08
2018-12-31T17:05:59.604Z,4.45
2018-12-31T17:08:28.695Z,5.75
2018-12-31T17:10:56.887Z,4.53
2018-12-31T17:13:24.832Z,4.72
2018-12-31T17:18:39.098Z,37.25
2018-12-31T17:21:07.095Z,31.55
2018-12-31T17:23:35.241Z,11.38
2018-12-31T17:26:03.311Z,10.90
2018-12-31T17:28:31.390Z,6.70
2018-12-31T17:30:59.383Z,7.85
2018-12-31T17:33:29.139Z,7.60
2018-12-31T17:35:57.137Z,5.05
2018-12-31T17:38:25.233Z,5.62
2018-12-31T17:40:53.612Z,7.53
2018-12-31T17:43:21.581Z,8.13
2018-12-31T17:45:49.527Z,7.30
2018-12-31T17:48:17.599Z,8.08
2018-12-31T17:50:45.570Z,5.25
2018-12-31T17:53:13.768Z,8.43
2018-12-31T17:55:41.843Z,7.67
2018-12-31T17:58:09.808Z,6.33
2018-12-31T18:00:37.983Z,7.83
2018-12-31T18:03:05.951Z,6.50
2018-12-31T18:05:33.921Z,8.40
2018-12-31T18:08:02.287Z,6.33
2018-12-31T18:10:30.270Z,7.17
2018-12-31T18:12:58.238Z,6.80
2018-12-31T18:15:26.183Z,5.75
2018-12-31T18:17:54.257Z,6.20
2018-12-31T18:20:22.588Z,7.62
2018-12-31T18:22:50.388Z,9.68
2018-12-31T18:25:18.244Z,9.33
2018-12-31T18:27:46.420Z,11.00
2018-12-31T18:30:14.304Z,10.13
2018-12-31T18:32:42.224Z,8.88
2018-12-31T18:35:10.679Z,9.28
2018-12-31T18:37:41.845Z,14.33
2018-12-31T18:40:11.222Z,9.05
2018-12-31T18:42:39.198Z,7.75
2018-12-31T18:45:07.141Z,9.20
2018-12-31T18:47:35.647Z,9.90
2018-12-31T18:50:03.692Z,7.42
2018-12-31T18:52:31.665Z,6.37
2018-12-31T18:55:01.478Z,6.45
2018-12-31T18:57:31.110Z,6.05
2018-12-31T18:59:59.294Z,8.73
2018-12-31T19:29:13.927Z,15.32
2018-12-31T19:31:41.872Z,8.50
2018-12-31T19:34:09.844Z,11.80
2018-12-31T19:36:37.805Z,6.85
2018-12-31T19:39:05.988Z,6.40
2018-12-31T19:41:33.976Z,7.10
2018-12-31T19:44:03.492Z,6.12
2018-12-31T19:46:31.658Z,9.85
2018-12-31T19:48:59.628Z,6.40
2018-12-31T19:51:27.595Z,8.63
2018-12-31T19:53:55.567Z,7.92
2018-12-31T19:56:23.536Z,8.95
2018-12-31T19:58:53.321Z,8.23
2018-12-31T20:01:21.329Z,6.05
2018-12-31T20:03:49.489Z,5.90
2018-12-31T20:06:36.219Z,8.40
2018-12-31T20:09:04.966Z,6.95
2018-12-31T20:11:33.264Z,7.65
2018-12-31T20:14:01.334Z,7.95
2018-12-31T20:16:30.881Z,7.80
2018-12-31T20:18:58.912Z,7.42
2018-12-31T20:21:27.190Z,7.25
2018-12-31T20:23:55.131Z,7.92
2018-12-31T20:26:23.208Z,9.68
2018-12-31T20:28:51.506Z,4.60
2018-12-31T20:31:19.656Z,3.80
2018-12-31T20:33:47.627Z,5.28
2018-12-31T20:36:15.786Z,8.13
2018-12-31T20:38:44.081Z,6.72
2018-12-31T20:41:12.070Z,7.05
2018-12-31T20:43:40.348Z,3.40
2018-12-31T20:46:08.316Z,4.90
2018-12-31T20:48:36.261Z,6.00
2018-12-31T20:51:04.230Z,5.58
2018-12-31T20:53:32.431Z,6.75
2018-12-31T20:56:00.403Z,5.90
2018-12-31T20:58:29.803Z,5.25
2018-12-31T21:00:58.941Z,5.17
2018-12-31T21:03:27.071Z,5.05
2018-12-31T21:05:55.451Z,7.47
2018-12-31T21:08:24.365Z,9.40
2018-12-31T21:10:53.443Z,9.20
2018-12-31T21:13:21.512Z,10.13
2018-12-31T21:15:49.453Z,5.08
2018-12-31T21:18:17.567Z,7.62
2018-12-31T21:20:45.519Z,8.15
2018-12-31T21:23:13.678Z,9.40
2018-12-31T21:25:41.675Z,6.40
2018-12-31T21:28:09.609Z,8.83
2018-12-31T21:30:37.579Z,8.48
2018-12-31T21:33:06.677Z,9.13
2018-12-31T21:35:34.645Z,8.15
2018-12-31T21:38:02.722Z,6.20
2018-12-31T21:40:30.711Z,10.65
2018-12-31T21:42:59.590Z,9.20
2018-12-31T21:45:27.776Z,7.00
2018-12-31T21:47:57.638Z,7.15
2018-12-31T21:50:25.661Z,7.60
2018-12-31T21:52:55.278Z,5.87
2018-12-31T21:55:23.420Z,7.33
2018-12-31T21:57:53.235Z,9.15
2018-12-31T22:00:21.224Z,7.85
2018-12-31T22:02:56.831Z,10.68
2018-12-31T22:05:18.981Z,12.05
2018-12-31T22:07:47.079Z,13.93
2018-12-31T22:10:16.115Z,13.80
2018-12-31T22:12:44.116Z,11.97
2018-12-31T22:15:12.110Z,9.18
2018-12-31T22:17:40.082Z,9.05
2018-12-31T22:20:08.152Z,7.50
2018-12-31T22:22:36.207Z,13.95
2018-12-31T22:25:04.196Z,12.30
2018-12-31T22:27:32.965Z,8.90
2018-12-31T22:30:01.056Z,7.97
2018-12-31T22:32:29.332Z,9.95
2018-12-31T22:34:57.276Z,7.97
2018-12-31T22:37:25.244Z,6.83
2018-12-31T22:39:53.238Z,11.10
2018-12-31T22:42:21.335Z,11.08
2018-12-31T22:44:49.361Z,6.62
2018-12-31T22:47:17.557Z,4.28
2018-12-31T22:49:46.580Z,5.92
2018-12-31T22:52:14.593Z,5.15
2018-12-31T22:54:43.102Z,5.70
2018-12-31T22:57:11.176Z,7.92
2018-12-31T22:59:39.124Z,7.10
2018-12-31T23:02:07.319Z,11.68
2018-12-31T23:04:35.391Z,5.20
2018-12-31T23:07:03.358Z,4.83
2018-12-31T23:09:31.434Z,4.47
2018-12-31T23:12:00.527Z,6.47
2018-12-31T23:14:28.471Z,6.78
2018-12-31T23:16:56.568Z,5.78
2018-12-31T23:19:26.251Z,8.75
2018-12-31T23:21:54.250Z,6.55
2018-12-31T23:24:22.205Z,6.92
2018-12-31T23:26:51.312Z,7.10
2018-12-31T23:29:19.285Z,5.22
2018-12-31T23:31:47.353Z,5.30
2018-12-31T23:34:15.440Z,6.70
2018-12-31T23:36:45.099Z,5.87
2018-12-31T23:39:13.208Z,7.08
2018-12-31T23:41:41.175Z,6.53
2018-12-31T23:44:09.130Z,6.03
2018-12-31T23:46:37.234Z,4.65
2018-12-31T23:49:05.195Z,7.92
2018-12-31T23:51:33.261Z,5.87
2018-12-31T23:54:01.843Z,7.00
2018-12-31T23:56:29.992Z,4.80
2018-12-31T23:58:58.091Z,7.22
